createdAt,value
2022-08-22T00:00:27.533Z,17.43
2022-08-22T00:02:49.120Z,18.92
2022-08-22T00:03:04.654Z,18.23
2022-08-22T00:03:09.129Z,19.16
2022-08-22T00:03:10.645Z,18.37
2022-08-22T00:06:04.094Z,17.50
2022-08-22T00:08:49.431Z,17.52
2022-08-22T00:11:47.399Z,17.50
2022-08-22T00:14:49.423Z,17.49
2022-08-22T00:17:47.047Z,17.49
2022-08-22T00:20:28.056Z,17.49
2022-08-22T00:23:25.068Z,17.47
2022-08-22T00:25:56.343Z,17.43
2022-08-22T00:28:40.367Z,17.38
2022-08-22T00:31:22.354Z,17.32
2022-08-22T00:34:01.343Z,17.29
2022-08-22T00:36:34.360Z,17.29
2022-08-22T00:39:25.798Z,17.25
2022-08-22T00:42:08.245Z,17.24
2022-08-22T00:44:49.366Z,17.27
2022-08-22T00:47:45.353Z,17.25
2022-08-22T00:50:42.445Z,17.23
2022-08-22T00:53:28.281Z,17.18
2022-08-22T00:56:22.671Z,17.18
2022-08-22T00:59:26.934Z,17.15
2022-08-22T01:02:09.810Z,17.15
2022-08-22T01:04:51.229Z,17.12
2022-08-22T01:07:38.174Z,17.12
2022-08-22T01:10:14.621Z,17.10
2022-08-22T01:12:50.010Z,17.09
2022-08-22T01:15:24.650Z,17.11
2022-08-22T01:18:09.845Z,17.10
2022-08-22T01:20:57.834Z,17.09
2022-08-22T01:23:33.365Z,17.07
2022-08-22T01:26:19.500Z,17.04
2022-08-22T01:29:04.402Z,17.02
2022-08-22T01:32:06.427Z,16.99
2022-08-22T01:34:54.109Z,16.97
2022-08-22T01:37:59.912Z,16.93
2022-08-22T01:41:03.511Z,16.94
2022-08-22T01:43:59.810Z,16.95
2022-08-22T01:46:42.802Z,16.95
2022-08-22T01:49:23.699Z,16.93
2022-08-22T01:52:12.024Z,16.89
2022-08-22T01:55:00.743Z,16.90
2022-08-22T01:57:27.838Z,16.93
2022-08-22T01:59:59.190Z,16.92
2022-08-22T02:03:03.395Z,16.90
2022-08-22T02:05:37.360Z,16.92
2022-08-22T02:08:20.799Z,16.88
2022-08-22T02:10:59.694Z,16.88
2022-08-22T02:13:26.355Z,16.87
2022-08-22T02:16:14.774Z,16.85
2022-08-22T02:19:05.376Z,16.82
2022-08-22T02:21:58.735Z,16.81
2022-08-22T02:24:37.924Z,16.85
2022-08-22T02:27:07.479Z,16.88
2022-08-22T02:29:49.116Z,16.87
2022-08-22T02:32:28.809Z,16.85
2022-08-22T02:35:03.508Z,16.82
2022-08-22T02:37:35.580Z,16.78
2022-08-22T02:40:10.471Z,16.73
2022-08-22T02:42:47.091Z,16.70
2022-08-22T02:45:45.824Z,16.71
2022-08-22T02:48:19.642Z,16.73
2022-08-22T02:50:57.844Z,16.70
2022-08-22T02:53:37.908Z,16.70
2022-08-22T02:56:08.714Z,16.70
2022-08-22T02:58:51.702Z,16.70
2022-08-22T03:01:33.390Z,16.70
2022-08-22T03:04:30.647Z,16.68
2022-08-22T03:07:21.309Z,16.68
2022-08-22T03:09:56.766Z,16.67
2022-08-22T03:12:56.975Z,16.69
2022-08-22T03:15:31.139Z,16.68
2022-08-22T03:18:14.809Z,16.69
2022-08-22T03:20:54.116Z,16.70
2022-08-22T03:23:31.648Z,16.70
2022-08-22T03:26:16.915Z,16.70
2022-08-22T03:29:00.012Z,16.66
2022-08-22T03:31:28.974Z,16.60
2022-08-22T03:34:17.429Z,16.57
2022-08-22T03:37:10.323Z,16.63
2022-08-22T03:39:47.840Z,16.65
2022-08-22T03:42:46.658Z,16.66
2022-08-22T03:45:34.027Z,16.64
2022-08-22T03:48:27.953Z,16.65
2022-08-22T03:51:11.980Z,16.63
2022-08-22T03:54:05.479Z,16.58
2022-08-22T03:57:02.098Z,16.56
2022-08-22T03:59:34.817Z,16.55
2022-08-22T04:02:43.231Z,16.58
2022-08-22T04:05:25.389Z,16.60
2022-08-22T04:08:15.903Z,16.62
2022-08-22T04:10:48.204Z,16.63
2022-08-22T04:13:27.676Z,16.65
2022-08-22T04:16:31.487Z,16.65
2022-08-22T04:19:16.634Z,16.65
2022-08-22T04:22:17.029Z,16.65
2022-08-22T04:24:55.477Z,16.63
2022-08-22T04:27:55.805Z,16.61
2022-08-22T04:30:40.889Z,16.56
2022-08-22T04:33:22.193Z,16.52
2022-08-22T04:35:57.405Z,16.51
2022-08-22T04:38:47.796Z,16.46
2022-08-22T04:41:25.420Z,16.48
2022-08-22T04:44:00.612Z,16.52
2022-08-22T04:47:04.289Z,16.52
2022-08-22T04:49:52.634Z,16.47
2022-08-22T04:52:41.052Z,16.41
2022-08-22T04:55:33.079Z,16.37
2022-08-22T04:58:38.572Z,16.37
2022-08-22T05:01:24.082Z,16.41
2022-08-22T05:03:58.306Z,16.37
2022-08-22T05:06:29.556Z,16.33
2022-08-22T05:09:01.446Z,16.30
2022-08-22T05:11:29.914Z,16.29
2022-08-22T05:14:26.736Z,16.29
2022-08-22T05:16:56.415Z,16.30
2022-08-22T05:19:32.214Z,16.26
2022-08-22T05:21:59.550Z,16.24
2022-08-22T05:24:33.408Z,16.22
2022-08-22T05:27:11.217Z,16.23
2022-08-22T05:29:41.289Z,16.31
2022-08-22T05:32:16.153Z,16.40
2022-08-22T05:34:45.905Z,16.48
2022-08-22T05:37:17.747Z,16.56
2022-08-22T05:39:49.246Z,16.60
2022-08-22T05:42:23.702Z,16.62
2022-08-22T05:44:50.384Z,16.66
2022-08-22T05:47:38.406Z,16.71
2022-08-22T05:50:10.867Z,16.72
2022-08-22T05:53:11.078Z,16.72
2022-08-22T05:55:49.900Z,16.76
2022-08-22T05:58:41.573Z,16.82
2022-08-22T06:01:20.605Z,16.84
2022-08-22T06:03:57.222Z,16.84
2022-08-22T06:06:26.925Z,16.86
2022-08-22T06:09:06.745Z,16.89
2022-08-22T06:11:45.331Z,16.90
2022-08-22T06:14:47.771Z,16.94
2022-08-22T06:17:18.124Z,16.98
2022-08-22T06:19:50.691Z,17.05
2022-08-22T06:22:23.614Z,17.10
2022-08-22T06:24:54.442Z,17.14
2022-08-22T06:27:24.244Z,17.18
2022-08-22T06:29:58.603Z,17.19
2022-08-22T06:32:44.361Z,17.22
2022-08-22T06:35:25.752Z,17.30
2022-08-22T06:37:57.674Z,17.36
2022-08-22T06:40:26.834Z,17.43
2022-08-22T06:42:54.328Z,17.46
2022-08-22T06:45:32.770Z,17.51
2022-08-22T06:48:05.580Z,17.58
2022-08-22T06:50:39.756Z,17.61
2022-08-22T06:53:31.584Z,17.68
2022-08-22T06:56:06.102Z,17.71
2022-08-22T06:58:40.367Z,17.72
2022-08-22T07:01:12.682Z,17.78
2022-08-22T07:04:03.312Z,17.87
2022-08-22T07:06:36.437Z,17.92
2022-08-22T07:09:05.683Z,17.95
2022-08-22T07:11:43.355Z,18.01
2022-08-22T07:14:15.368Z,18.05
2022-08-22T07:16:55.181Z,18.12
2022-08-22T07:19:39.413Z,18.25
2022-08-22T07:22:15.665Z,18.38
2022-08-22T07:24:52.969Z,18.43
2022-08-22T07:27:31.747Z,18.46
2022-08-22T07:30:10.248Z,18.47
2022-08-22T07:32:52.502Z,18.49
2022-08-22T07:35:28.921Z,18.54
2022-08-22T07:37:55.839Z,18.54
2022-08-22T07:40:25.380Z,18.64
2022-08-22T07:43:13.411Z,18.73
2022-08-22T07:45:57.337Z,18.77
2022-08-22T07:48:26.981Z,18.85
2022-08-22T07:51:01.247Z,18.96
2022-08-22T07:53:57.963Z,19.10
2022-08-22T07:56:31.539Z,19.32
2022-08-22T07:59:17.517Z,19.47
2022-08-22T08:01:51.274Z,19.55
2022-08-22T08:04:23.242Z,19.62
2022-08-22T08:06:53.321Z,19.65
2022-08-22T08:09:21.101Z,19.65
2022-08-22T08:11:51.083Z,19.75
2022-08-22T08:14:20.513Z,19.73
2022-08-22T08:17:09.833Z,19.86
2022-08-22T08:19:40.803Z,19.90
2022-08-22T08:22:07.903Z,20.03
2022-08-22T08:24:42.150Z,20.03
2022-08-22T08:27:38.601Z,20.03
2022-08-22T08:30:13.428Z,20.11
2022-08-22T08:32:46.032Z,20.17
2022-08-22T08:35:21.199Z,20.20
2022-08-22T08:37:52.325Z,20.25
2022-08-22T08:41:03.748Z,20.31
2022-08-22T08:44:00.911Z,20.45
2022-08-22T08:46:39.589Z,20.46
2022-08-22T08:49:35.636Z,20.54
2022-08-22T08:52:17.769Z,20.59
2022-08-22T08:55:22.068Z,20.72
2022-08-22T09:00:51.181Z,20.89
2022-08-22T09:03:31.155Z,20.95
2022-08-22T09:06:42.571Z,20.91
2022-08-22T09:09:46.817Z,20.82
2022-08-22T09:12:56.390Z,20.80
2022-08-22T09:15:42.812Z,20.98
2022-08-22T09:18:22.728Z,21.21
2022-08-22T09:21:11.196Z,21.43
2022-08-22T09:24:07.262Z,21.55
2022-08-22T09:26:58.026Z,21.70
2022-08-22T09:29:55.179Z,21.89
2022-08-22T09:32:35.671Z,22.05
2022-08-22T09:35:11.483Z,22.23
2022-08-22T09:38:01.091Z,22.30
2022-08-22T09:40:47.944Z,22.44
2022-08-22T09:43:33.961Z,22.61
2022-08-22T09:46:15.395Z,22.75
2022-08-22T09:49:16.454Z,22.88
2022-08-22T09:52:15.112Z,22.90
2022-08-22T09:54:58.779Z,23.04
2022-08-22T09:57:38.921Z,23.20
2022-08-22T10:00:05.342Z,23.34
2022-08-22T10:02:43.509Z,23.48
2022-08-22T10:05:35.292Z,23.45
2022-08-22T10:08:11.408Z,23.70
2022-08-22T10:11:00.473Z,23.83
2022-08-22T10:13:46.686Z,24.00
2022-08-22T10:16:41.892Z,24.15
2022-08-22T10:19:42.530Z,24.19
2022-08-22T10:22:44.537Z,24.19
2022-08-22T10:25:42.154Z,24.26
2022-08-22T10:28:24.131Z,24.37
2022-08-22T10:30:55.124Z,24.32
2022-08-22T10:33:33.781Z,24.29
2022-08-22T10:36:22.095Z,24.33
2022-08-22T10:38:55.143Z,24.27
2022-08-22T10:41:38.565Z,24.12
2022-08-22T10:44:17.401Z,24.00
2022-08-22T10:46:57.142Z,24.18
2022-08-22T10:49:33.752Z,24.45
2022-08-22T10:52:15.319Z,24.58
2022-08-22T10:54:48.688Z,24.68
2022-08-22T10:57:36.754Z,25.16
2022-08-22T11:00:12.669Z,25.42
2022-08-22T11:03:16.670Z,25.37
2022-08-22T11:05:50.788Z,25.52
2022-08-22T11:08:23.547Z,25.89
2022-08-22T11:11:19.873Z,26.18
2022-08-22T11:14:12.624Z,26.03
2022-08-22T11:17:23.571Z,25.91
2022-08-22T11:20:14.401Z,25.68
2022-08-22T11:22:40.933Z,25.53
2022-08-22T11:25:15.923Z,25.65
2022-08-22T11:28:05.453Z,26.08
2022-08-22T11:30:47.972Z,26.19
2022-08-22T11:33:47.350Z,26.12
2022-08-22T11:36:39.290Z,25.89
2022-08-22T11:39:18.619Z,25.62
2022-08-22T11:42:06.722Z,25.49
2022-08-22T11:44:50.282Z,25.64
2022-08-22T11:47:26.739Z,25.76
2022-08-22T11:50:01.102Z,26.21
2022-08-22T11:52:51.863Z,26.58
2022-08-22T11:55:23.473Z,26.42
2022-08-22T11:58:01.274Z,26.50
2022-08-22T12:00:39.698Z,26.25
2022-08-22T12:03:33.340Z,26.27
2022-08-22T12:06:31.738Z,26.47
2022-08-22T12:09:33.822Z,26.54
2022-08-22T12:12:08.969Z,26.64
2022-08-22T12:14:54.682Z,26.55
2022-08-22T12:17:55.313Z,26.70
2022-08-22T12:21:01.490Z,26.98
2022-08-22T12:23:48.720Z,26.79
2022-08-22T12:26:45.301Z,26.72
2022-08-22T12:29:39.916Z,26.87
2022-08-22T12:32:39.687Z,26.89
2022-08-22T12:35:19.957Z,26.90
2022-08-22T12:38:02.455Z,27.23
2022-08-22T12:40:48.521Z,27.64
2022-08-22T12:43:27.759Z,28.09
2022-08-22T12:46:23.879Z,27.87
2022-08-22T12:49:09.037Z,27.34
2022-08-22T12:52:04.466Z,27.05
2022-08-22T12:54:34.055Z,26.78
2022-08-22T12:57:15.213Z,26.77
2022-08-22T12:59:55.831Z,26.96
2022-08-22T13:02:32.514Z,27.01
2022-08-22T13:05:22.744Z,26.83
2022-08-22T13:08:04.552Z,26.55
2022-08-22T13:10:58.440Z,26.35
2022-08-22T13:13:36.972Z,26.23
2022-08-22T13:16:15.885Z,26.18
2022-08-22T13:18:53.485Z,26.24
2022-08-22T13:21:26.229Z,26.51
2022-08-22T13:24:05.133Z,26.62
2022-08-22T13:26:40.785Z,26.51
2022-08-22T13:29:29.249Z,26.55
2022-08-22T13:32:07.308Z,26.58
2022-08-22T13:34:39.913Z,26.64
2022-08-22T13:37:12.199Z,26.56
2022-08-22T13:39:43.508Z,26.52
2022-08-22T13:42:27.773Z,26.41
2022-08-22T13:45:02.383Z,26.27
2022-08-22T13:47:32.425Z,26.66
2022-08-22T13:50:23.075Z,26.88
2022-08-22T13:52:58.445Z,27.35
2022-08-22T13:55:55.398Z,27.33
2022-08-22T13:58:41.767Z,27.34
2022-08-22T14:01:43.912Z,27.54
2022-08-22T14:04:35.832Z,27.65
2022-08-22T14:07:03.670Z,27.79
2022-08-22T14:09:53.048Z,27.82
2022-08-22T14:12:30.229Z,27.87
2022-08-22T14:15:04.176Z,27.89
2022-08-22T14:17:38.513Z,27.90
2022-08-22T14:20:32.003Z,27.97
2022-08-22T14:23:04.942Z,27.97
2022-08-22T14:25:37.141Z,28.02
2022-08-22T14:28:21.638Z,28.03
2022-08-22T14:31:01.909Z,27.97
2022-08-22T14:33:37.033Z,27.93
2022-08-22T14:36:23.601Z,27.96
2022-08-22T14:38:59.439Z,27.90
2022-08-22T14:41:52.941Z,27.89
2022-08-22T14:44:30.388Z,27.88
2022-08-22T14:47:04.246Z,27.85
2022-08-22T14:49:33.859Z,27.87
2022-08-22T14:52:19.447Z,27.87
2022-08-22T14:54:46.742Z,27.94
2022-08-22T14:57:19.835Z,27.94
2022-08-22T14:59:50.612Z,27.83
2022-08-22T15:02:25.033Z,27.85
2022-08-22T15:04:54.917Z,27.83
2022-08-22T15:07:54.139Z,27.86
2022-08-22T15:10:25.754Z,27.76
2022-08-22T15:12:56.885Z,27.56
2022-08-22T15:15:30.770Z,27.60
2022-08-22T15:17:57.576Z,27.52
2022-08-22T15:20:36.174Z,27.51
2022-08-22T15:23:18.697Z,27.61
2022-08-22T15:25:56.056Z,27.60
2022-08-22T15:28:24.499Z,27.54
2022-08-22T15:30:54.191Z,27.55
2022-08-22T15:33:32.371Z,27.32
2022-08-22T15:36:15.889Z,27.21
2022-08-22T15:39:12.179Z,27.26
2022-08-22T15:41:46.295Z,27.32
2022-08-22T15:44:30.947Z,27.22
2022-08-22T15:47:10.610Z,27.26
2022-08-22T15:49:52.878Z,27.30
2022-08-22T15:52:25.989Z,27.33
2022-08-22T15:54:57.180Z,27.20
2022-08-22T15:57:40.116Z,27.14
2022-08-22T16:00:34.121Z,27.07
2022-08-22T16:03:05.993Z,26.95
2022-08-22T16:05:54.676Z,26.93
2022-08-22T16:08:33.114Z,26.94
2022-08-22T16:11:02.875Z,26.95
2022-08-22T16:13:33.568Z,26.87
2022-08-22T16:16:02.784Z,26.85
2022-08-22T16:18:36.962Z,26.89
2022-08-22T16:21:06.065Z,26.85
2022-08-22T16:23:51.122Z,26.79
2022-08-22T16:26:36.751Z,26.72
2022-08-22T16:29:17.527Z,26.52
2022-08-22T16:31:44.629Z,26.37
2022-08-22T16:34:17.735Z,26.38
2022-08-22T16:37:06.351Z,26.34
2022-08-22T16:39:38.603Z,26.32
2022-08-22T16:42:39.463Z,26.32
2022-08-22T16:45:11.970Z,26.33
2022-08-22T16:47:52.784Z,26.32
2022-08-22T16:50:38.290Z,26.35
2022-08-22T16:53:10.671Z,26.33
2022-08-22T16:55:39.465Z,26.27
2022-08-22T16:58:09.255Z,26.22
2022-08-22T17:01:04.282Z,26.16
2022-08-22T17:03:45.212Z,26.14
2022-08-22T17:06:34.982Z,26.11
2022-08-22T17:09:32.955Z,26.11
2022-08-22T17:12:37.029Z,26.05
2022-08-22T17:15:23.810Z,25.97
2022-08-22T17:18:18.260Z,25.94
2022-08-22T17:21:06.716Z,25.89
2022-08-22T17:23:42.391Z,25.81
2022-08-22T17:26:26.112Z,25.70
2022-08-22T17:29:01.703Z,25.61
2022-08-22T17:31:43.175Z,25.53
2022-08-22T17:34:12.550Z,25.49
2022-08-22T17:36:54.354Z,25.41
2022-08-22T17:39:51.796Z,25.33
2022-08-22T17:42:38.874Z,25.22
2022-08-22T17:45:38.264Z,25.11
2022-08-22T17:48:24.739Z,24.99
2022-08-22T17:50:57.125Z,24.94
2022-08-22T17:53:35.198Z,24.92
2022-08-22T17:56:22.809Z,24.83
2022-08-22T17:59:20.809Z,24.75
2022-08-22T18:01:57.072Z,24.67
2022-08-22T18:04:34.995Z,24.56
2022-08-22T18:07:25.146Z,24.42
2022-08-22T18:10:10.891Z,24.28
2022-08-22T18:12:49.635Z,24.23
2022-08-22T18:15:25.370Z,24.18
2022-08-22T18:18:38.966Z,24.04
2022-08-22T18:21:32.010Z,23.84
2022-08-22T18:24:12.998Z,23.73
2022-08-22T18:26:42.553Z,23.63
2022-08-22T18:29:17.337Z,23.55
2022-08-22T18:32:02.717Z,23.42
2022-08-22T18:34:52.304Z,23.39
2022-08-22T18:37:21.171Z,23.40
2022-08-22T18:39:56.310Z,23.29
2022-08-22T18:42:36.844Z,23.16
2022-08-22T18:45:03.943Z,23.15
2022-08-22T18:47:33.149Z,23.08
2022-08-22T18:50:24.404Z,22.95
2022-08-22T18:52:53.421Z,22.83
2022-08-22T18:55:43.168Z,22.76
2022-08-22T18:58:37.993Z,22.68
2022-08-22T19:01:31.068Z,22.60
2022-08-22T19:04:08.445Z,22.60
2022-08-22T19:07:02.692Z,22.57
2022-08-22T19:10:06.858Z,22.50
2022-08-22T19:12:49.243Z,22.35
2022-08-22T19:15:22.806Z,22.31
2022-08-22T19:18:07.909Z,22.19
2022-08-22T19:20:57.092Z,22.11
2022-08-22T19:23:32.683Z,22.05
2022-08-22T19:26:24.497Z,22.03
2022-08-22T19:28:53.910Z,21.99
2022-08-22T19:31:41.845Z,21.97
2022-08-22T19:34:25.112Z,21.91
2022-08-22T19:37:31.778Z,21.85
2022-08-22T19:40:06.818Z,21.77
2022-08-22T19:42:36.982Z,21.65
2022-08-22T19:45:26.474Z,21.64
2022-08-22T19:47:57.989Z,21.58
2022-08-22T19:50:30.997Z,21.55
2022-08-22T19:53:06.553Z,21.52
2022-08-22T19:55:39.123Z,21.45
2022-08-22T19:58:33.028Z,21.38
2022-08-22T20:01:12.784Z,21.30
2022-08-22T20:03:50.411Z,21.25
2022-08-22T20:06:44.105Z,21.16
2022-08-22T20:09:22.714Z,21.04
2022-08-22T20:12:00.151Z,20.96
2022-08-22T20:14:30.749Z,20.94
2022-08-22T20:16:59.735Z,20.97
2022-08-22T20:22:58.357Z,20.95
2022-08-22T20:25:43.679Z,20.94
2022-08-22T20:28:29.598Z,20.89
2022-08-22T20:31:02.280Z,20.89
2022-08-22T20:33:35.989Z,20.85
2022-08-22T20:36:06.460Z,20.81
2022-08-22T20:38:55.944Z,20.77
2022-08-22T20:41:29.359Z,20.70
2022-08-22T20:44:02.416Z,20.60
2022-08-22T20:46:43.654Z,20.47
2022-08-22T20:49:17.694Z,20.38
2022-08-22T20:52:10.936Z,20.34
2022-08-22T20:54:40.470Z,20.34
2022-08-22T20:57:19.249Z,20.36
2022-08-22T20:59:54.822Z,20.34
2022-08-22T21:02:30.186Z,20.32
2022-08-22T21:05:03.202Z,20.29
2022-08-22T21:07:36.765Z,20.22
2022-08-22T21:10:39.853Z,20.21
2022-08-22T21:13:08.557Z,20.21
2022-08-22T21:15:47.492Z,20.20
2022-08-22T21:18:24.680Z,20.17
2022-08-22T21:20:51.996Z,20.15
2022-08-22T21:23:19.662Z,20.15
2022-08-22T21:25:54.938Z,20.13
2022-08-22T21:28:30.993Z,20.12
2022-08-22T21:30:58.720Z,20.12
2022-08-22T21:33:25.714Z,20.06
2022-08-22T21:35:59.027Z,19.98
2022-08-22T21:38:26.453Z,19.82
2022-08-22T21:41:00.044Z,19.74
2022-08-22T21:43:32.690Z,19.67
2022-08-22T21:45:59.659Z,19.67
2022-08-22T21:48:59.961Z,19.71
2022-08-22T21:51:43.508Z,19.76
2022-08-22T21:54:25.092Z,19.77
2022-08-22T21:56:58.408Z,19.77
2022-08-22T21:59:50.712Z,19.74
2022-08-22T22:02:28.541Z,19.73
2022-08-22T22:04:55.945Z,19.71
2022-08-22T22:07:23.746Z,19.69
2022-08-22T22:09:54.395Z,19.66
2022-08-22T22:12:23.241Z,19.60
2022-08-22T22:14:50.109Z,19.55
2022-08-22T22:17:18.411Z,19.49
2022-08-22T22:19:45.544Z,19.47
2022-08-22T22:22:11.989Z,19.47
2022-08-22T22:24:38.569Z,19.47
2022-08-22T22:27:05.932Z,19.48
2022-08-22T22:29:34.023Z,19.49
2022-08-22T22:32:00.516Z,19.46
2022-08-22T22:34:27.195Z,19.44
2022-08-22T22:36:54.632Z,19.41
2022-08-22T22:39:21.254Z,19.40
2022-08-22T22:41:48.924Z,19.37
2022-08-22T22:44:15.408Z,19.34
2022-08-22T22:46:41.974Z,19.30
2022-08-22T22:49:11.634Z,19.27
2022-08-22T22:51:38.168Z,19.25
2022-08-22T22:54:05.004Z,19.24
2022-08-22T22:56:31.528Z,19.22
2022-08-22T22:59:00.859Z,19.21
2022-08-22T23:02:01.514Z,19.25
2022-08-22T23:04:28.680Z,19.26
2022-08-22T23:06:55.263Z,19.29
2022-08-22T23:09:21.810Z,19.28
2022-08-22T23:11:54.741Z,19.27
2022-08-22T23:14:21.235Z,19.23
2022-08-22T23:16:47.775Z,19.24
2022-08-22T23:19:16.771Z,19.23
2022-08-22T23:21:44.954Z,19.23
2022-08-22T23:24:12.641Z,19.25
2022-08-22T23:26:39.703Z,19.25
2022-08-22T23:29:06.708Z,19.22
2022-08-22T23:31:42.664Z,19.13
2022-08-22T23:34:12.023Z,19.06
2022-08-22T23:36:40.339Z,19.02
2022-08-22T23:39:08.164Z,19.04
2022-08-22T23:41:36.570Z,19.05
2022-08-22T23:44:05.739Z,19.00
2022-08-22T23:46:32.414Z,18.91
2022-08-22T23:49:00.510Z,18.81
2022-08-22T23:51:27.467Z,18.75
2022-08-22T23:53:56.667Z,18.73
2022-08-22T23:56:29.652Z,18.68
2022-08-22T23:58:57.240Z,18.68
